Time;durP1;ratioP1;P1;durP2;ratioP2;P2;SDS_P1;SDS_P2;PMS_P1;PMS_P2;Temp;Humidity;BMP_temperature;BMP_pressure;BME280_temperature;BME280_humidity;BME280_pressure;Samples;Min_cycle;Max_cycle;Signal;HPM_P1;HPM_P2
2022/05/10 00:01:53;;;;;;;3.97;1.30;;;4.50;99.90;;;;;;5090560;28;20547;-83
2022/05/10 00:04:20;;;;;;;2.45;0.90;;;4.40;99.90;;;;;;5091002;28;20468;-83
2022/05/10 00:06:49;;;;;;;26.58;2.00;;;4.40;99.90;;;;;;5073241;28;20376;-85
2022/05/10 00:09:21;;;;;;;61.30;3.90;;;4.40;99.90;;;;;;5091079;28;20437;-83
2022/05/10 00:11:49;;;;;;;65.57;8.93;;;4.30;99.90;;;;;;5091918;28;20388;-83
2022/05/10 00:14:17;;;;;;;68.83;5.30;;;4.30;99.90;;;;;;5091833;28;20461;-82
2022/05/10 00:16:45;;;;;;;34.88;2.58;;;4.30;99.90;;;;;;5073792;28;20802;-84
2022/05/10 00:19:15;;;;;;;82.43;6.93;;;4.30;99.90;;;;;;5091502;28;20380;-85
2022/05/10 00:21:43;;;;;;;38.13;4.80;;;4.30;99.90;;;;;;5091476;28;20447;-83
2022/05/10 00:24:11;;;;;;;26.13;1.90;;;4.20;99.90;;;;;;5091166;28;20423;-83
2022/05/10 00:26:39;;;;;;;21.83;1.73;;;4.30;99.90;;;;;;5057058;28;20411;-84
2022/05/10 00:29:06;;;;;;;4.32;1.02;;;4.20;99.90;;;;;;5091268;28;20477;-84
2022/05/10 00:31:34;;;;;;;75.60;7.00;;;4.20;99.90;;;;;;5091634;28;20386;-85
2022/05/10 00:34:03;;;;;;;34.60;2.50;;;4.10;99.90;;;;;;5091229;28;21072;-84
2022/05/10 00:36:31;;;;;;;2.37;0.80;;;4.10;99.90;;;;;;5091413;28;20384;-84
2022/05/10 00:38:59;;;;;;;47.60;4.20;;;4.10;99.90;;;;;;5086244;28;20468;-83
2022/05/10 00:41:37;;;;;;;33.60;2.60;;;4.10;99.90;;;;;;5053369;28;20419;-84
2022/05/10 00:44:29;;;;;;;263.55;16.33;;;4.10;99.90;;;;;;5071670;28;20388;-82
2022/05/10 00:47:12;;;;;;;195.93;15.13;;;4.30;99.90;;;;;;5053495;28;20421;-83
2022/05/10 00:50:05;;;;;;;70.38;5.72;;;4.20;99.90;;;;;;5072000;28;20428;-83
2022/05/10 00:52:57;;;;;;;2.88;0.60;;;4.10;99.90;;;;;;5051636;28;20413;-84
2022/05/10 00:55:56;;;;;;;2.65;0.93;;;4.00;99.90;;;;;;5071002;28;20532;-84
2022/05/10 00:58:52;;;;;;;2.88;0.80;;;3.90;99.90;;;;;;5068633;28;20421;-84
2022/05/10 01:01:27;;;;;;;65.33;5.07;;;3.90;99.90;;;;;;5060127;28;20386;-83
2022/05/10 01:04:18;;;;;;;115.22;8.98;;;4.00;99.90;;;;;;5071657;28;20435;-82
2022/05/10 01:06:58;;;;;;;70.05;3.72;;;4.00;99.90;;;;;;5055136;28;20391;-83
2022/05/10 01:09:42;;;;;;;2.22;0.68;;;3.90;99.90;;;;;;5076535;28;20384;-84
2022/05/10 01:12:16;;;;;;;2.97;0.90;;;3.80;99.90;;;;;;5071620;28;20508;-84
2022/05/10 01:15:01;;;;;;;38.23;2.23;;;3.80;99.90;;;;;;5091059;28;20773;-84
2022/05/10 01:17:29;;;;;;;71.93;5.87;;;4.00;99.90;;;;;;5073333;28;20477;-83
2022/05/10 01:19:56;;;;;;;155.70;14.80;;;4.00;99.90;;;;;;5071559;28;20382;-83
2022/05/10 01:22:45;;;;;;;71.20;5.37;;;4.00;99.90;;;;;;5071371;28;20424;-83
2022/05/10 01:25:29;;;;;;;62.83;4.70;;;3.90;99.90;;;;;;5071505;28;20440;-84
2022/05/10 01:28:30;;;;;;;80.60;6.40;;;3.90;99.90;;;;;;5071358;28;20392;-83
2022/05/10 01:31:06;;;;;;;29.02;2.15;;;3.80;99.90;;;;;;5071229;28;20878;-83
2022/05/10 01:33:41;;;;;;;126.18;9.18;;;3.80;99.90;;;;;;5071952;28;20782;-83
2022/05/10 01:36:16;;;;;;;76.90;6.90;;;3.80;99.90;;;;;;5071162;28;20439;-83
2022/05/10 01:38:56;;;;;;;147.07;12.98;;;3.80;99.90;;;;;;5056741;28;20373;-83
2022/05/10 01:41:31;;;;;;;135.20;7.78;;;3.80;99.90;;;;;;5090215;28;20380;-82
2022/05/10 01:44:23;;;;;;;185.17;16.53;;;3.90;99.90;;;;;;5091575;28;20425;-83
2022/05/10 01:46:57;;;;;;;223.90;21.67;;;3.90;99.90;;;;;;5089678;28;20402;-84
2022/05/10 01:49:43;;;;;;;56.95;9.70;;;3.80;99.90;;;;;;5086807;28;20380;-82
2022/05/10 01:52:16;;;;;;;40.95;4.50;;;3.80;99.90;;;;;;5092793;28;20445;-82
2022/05/10 01:54:47;;;;;;;93.13;7.07;;;3.80;99.90;;;;;;5075554;28;20406;-83
2022/05/10 01:57:18;;;;;;;100.60;10.80;;;3.80;99.90;;;;;;5093647;28;20388;-83
2022/05/10 01:59:55;;;;;;;35.20;4.82;;;3.80;99.90;;;;;;5078878;28;20898;-82
2022/05/10 02:02:25;;;;;;;9.23;1.30;;;3.80;99.90;;;;;;5074883;28;20447;-84
2022/05/10 02:04:57;;;;;;;61.10;8.30;;;3.80;99.90;;;;;;5076381;28;20423;-82
2022/05/10 02:07:26;;;;;;;119.85;15.35;;;3.80;99.90;;;;;;5094319;28;20421;-80
2022/05/10 02:10:00;;;;;;;150.73;12.00;;;3.80;99.90;;;;;;5076234;28;20388;-83
2022/05/10 02:12:48;;;;;;;109.13;11.13;;;3.80;99.90;;;;;;5076259;28;20441;-83
2022/05/10 02:15:29;;;;;;;2.40;0.77;;;3.70;99.90;;;;;;5094282;28;20388;-82
2022/05/10 02:18:18;;;;;;;1.70;0.80;;;3.70;99.90;;;;;;5094764;28;20426;-83
2022/05/10 02:20:53;;;;;;;60.78;5.50;;;3.80;99.90;;;;;;5076229;28;20420;-83
2022/05/10 02:23:28;;;;;;;145.93;12.90;;;3.70;99.90;;;;;;5094678;28;20392;-83
2022/05/10 02:26:08;;;;;;;35.50;2.88;;;3.70;99.90;;;;;;5094178;28;20582;-83
2022/05/10 02:28:54;;;;;;;65.45;18.85;;;3.70;99.90;;;;;;5093256;28;20413;-83
2022/05/10 02:31:31;;;;;;;7.97;1.20;;;3.70;99.90;;;;;;5094093;28;20437;-84
2022/05/10 02:33:59;;;;;;;28.92;2.30;;;3.70;99.90;;;;;;5075943;28;20767;-82
2022/05/10 02:36:26;;;;;;;2.08;1.00;;;3.70;99.90;;;;;;5094108;28;20384;-83
2022/05/10 02:38:54;;;;;;;3.75;0.90;;;3.70;99.90;;;;;;5094143;28;20859;-83
2022/05/10 02:41:22;;;;;;;137.43;11.55;;;3.70;99.90;;;;;;5093940;28;20501;-83
2022/05/10 02:43:55;;;;;;;188.18;16.13;;;3.70;99.90;;;;;;5094559;28;20399;-83
2022/05/10 02:46:25;;;;;;;96.50;9.40;;;3.60;99.90;;;;;;5094204;28;20419;-82
2022/05/10 02:48:53;;;;;;;136.00;10.70;;;3.60;99.90;;;;;;5078822;28;20425;-82
2022/05/10 02:51:21;;;;;;;38.75;2.10;;;3.60;99.90;;;;;;5072196;28;20448;-82
2022/05/10 02:53:49;;;;;;;67.37;7.30;;;3.60;99.90;;;;;;5073369;28;20402;-82
2022/05/10 02:56:21;;;;;;;103.78;7.43;;;3.50;99.90;;;;;;5072399;28;20386;-83
2022/05/10 02:58:54;;;;;;;81.57;7.93;;;3.50;99.90;;;;;;5073423;28;20775;-83
2022/05/10 03:01:40;;;;;;;69.15;7.55;;;3.50;99.90;;;;;;5055174;28;20448;-84
2022/05/10 03:04:10;;;;;;;29.65;2.70;;;3.50;99.90;;;;;;5073263;28;20488;-83
2022/05/10 03:06:39;;;;;;;3.03;0.73;;;3.50;99.90;;;;;;5055381;28;20389;-83
2022/05/10 03:09:07;;;;;;;121.60;9.77;;;3.50;99.90;;;;;;5073187;28;20730;-83
2022/05/10 03:11:35;;;;;;;19.88;1.67;;;3.50;99.90;;;;;;5065979;28;20958;-83
2022/05/10 03:14:05;;;;;;;56.40;2.95;;;3.50;99.90;;;;;;5093295;28;20882;-82
2022/05/10 03:16:33;;;;;;;166.73;14.82;;;3.40;99.90;;;;;;5088077;28;20841;-83
2022/05/10 03:19:02;;;;;;;139.63;15.70;;;3.40;99.90;;;;;;5070894;28;20495;-83
2022/05/10 03:21:29;;;;;;;17.63;1.52;;;3.40;99.90;;;;;;5045207;28;20439;-83
2022/05/10 03:23:57;;;;;;;63.45;6.63;;;3.50;99.90;;;;;;5047866;28;20485;-82
2022/05/10 03:26:27;;;;;;;45.60;3.22;;;3.50;99.90;;;;;;5073483;28;20396;-84
2022/05/10 03:28:55;;;;;;;98.95;7.80;;;3.50;99.90;;;;;;5092158;28;20444;-84
2022/05/10 03:31:25;;;;;;;56.75;6.80;;;3.50;99.90;;;;;;5091473;28;20383;-84
2022/05/10 03:36:40;;;;;;;149.35;9.77;;;3.30;99.90;;;;;;5083874;28;20389;-83
2022/05/10 03:39:09;;;;;;;102.00;6.03;;;3.40;99.90;;;;;;5079456;28;20745;-82
2022/05/10 03:41:37;;;;;;;10.82;1.15;;;3.40;99.90;;;;;;5087669;28;20494;-82
2022/05/10 03:44:05;;;;;;;1.20;0.70;;;3.40;99.90;;;;;;5072674;28;20872;-82
2022/05/10 03:46:32;;;;;;;3.73;0.80;;;3.30;99.90;;;;;;5072287;28;20484;-84
2022/05/10 03:49:00;;;;;;;27.45;1.75;;;3.30;99.90;;;;;;5071034;28;20552;-83
2022/05/10 03:51:29;;;;;;;0.87;0.67;;;3.20;99.90;;;;;;5071459;28;20957;-84
2022/05/10 03:53:58;;;;;;;11.15;1.23;;;3.20;99.90;;;;;;5080105;28;20402;-83
2022/05/10 03:56:25;;;;;;;1.30;0.70;;;3.30;99.90;;;;;;5089471;28;20413;-82
2022/05/10 03:58:57;;;;;;;4.82;0.80;;;3.20;99.90;;;;;;5075135;28;20394;-83
2022/05/10 04:01:27;;;;;;;39.10;4.70;;;3.20;99.90;;;;;;5071838;28;20793;-83
2022/05/10 04:03:55;;;;;;;2.47;0.60;;;3.20;99.90;;;;;;5080832;28;20398;-83
2022/05/10 04:06:28;;;;;;;2.67;0.80;;;3.20;99.90;;;;;;5072354;28;20402;-82
2022/05/10 04:08:56;;;;;;;4.28;0.73;;;3.20;99.90;;;;;;5052738;28;20870;-83
2022/05/10 04:11:23;;;;;;;1.60;0.70;;;3.20;99.90;;;;;;5061313;28;20473;-82
2022/05/10 04:13:51;;;;;;;3.50;0.60;;;3.30;99.90;;;;;;5072180;28;20913;-83
2022/05/10 04:16:21;;;;;;;1.13;0.60;;;3.30;99.90;;;;;;5088102;28;20388;-82
2022/05/10 04:18:49;;;;;;;1.80;0.60;;;3.40;99.90;;;;;;5090800;28;20434;-83
2022/05/10 04:21:16;;;;;;;1.20;0.60;;;3.40;99.90;;;;;;5091869;28;20414;-84
2022/05/10 04:23:44;;;;;;;20.15;10.50;;;3.50;99.90;;;;;;5092040;28;20476;-83
2022/05/10 04:26:15;;;;;;;2.77;1.20;;;3.60;99.90;;;;;;5074149;28;20384;-83
2022/05/10 04:28:43;;;;;;;5.00;2.25;;;3.60;99.90;;;;;;5091459;28;20384;-84
2022/05/10 04:31:12;;;;;;;89.65;11.68;;;3.70;99.90;;;;;;5074088;28;20380;-84
2022/05/10 04:33:40;;;;;;;5.07;1.50;;;3.80;99.90;;;;;;5073860;28;20904;-84
2022/05/10 04:36:08;;;;;;;2.60;1.23;;;3.90;99.90;;;;;;5091118;28;20750;-83
2022/05/10 04:38:44;;;;;;;4.25;1.73;;;3.90;99.90;;;;;;5091497;28;20465;-84
2022/05/10 04:41:25;;;;;;;8.23;4.40;;;4.10;99.90;;;;;;5092075;28;20463;-84
2022/05/10 04:44:02;;;;;;;32.45;6.43;;;4.20;99.90;;;;;;5091545;28;20388;-83
2022/05/10 04:46:31;;;;;;;187.60;29.25;;;4.30;99.90;;;;;;5091404;28;20841;-83
2022/05/10 04:48:59;;;;;;;89.32;12.10;;;4.50;99.90;;;;;;5074557;28;21033;-84
2022/05/10 04:51:28;;;;;;;7.82;1.70;;;4.70;99.90;;;;;;5071622;28;20405;-83
2022/05/10 04:53:58;;;;;;;6.90;1.63;;;4.80;99.90;;;;;;5071579;28;20398;-84
2022/05/10 04:56:26;;;;;;;23.08;3.60;;;4.80;99.90;;;;;;5071930;28;20392;-84
2022/05/10 04:58:54;;;;;;;29.67;2.85;;;4.80;99.90;;;;;;5070758;28;20386;-84
2022/05/10 05:01:29;;;;;;;65.90;5.80;;;4.90;99.90;;;;;;5071576;28;20390;-84
2022/05/10 05:03:59;;;;;;;54.63;8.15;;;4.90;99.90;;;;;;5071582;28;20398;-83
2022/05/10 05:06:28;;;;;;;53.47;7.03;;;5.10;99.90;;;;;;5070383;28;20448;-84
2022/05/10 05:08:56;;;;;;;363.43;35.37;;;5.20;99.90;;;;;;5070365;28;20386;-84
2022/05/10 05:11:24;;;;;;;97.22;10.82;;;5.30;99.90;;;;;;5070844;28;20394;-84
2022/05/10 05:13:53;;;;;;;38.40;6.22;;;5.40;99.90;;;;;;5063704;28;20912;-83
2022/05/10 05:16:20;;;;;;;21.50;3.25;;;5.60;99.90;;;;;;5057949;28;20935;-83
2022/05/10 05:18:48;;;;;;;49.50;6.80;;;5.50;99.90;;;;;;5071778;28;20955;-84
2022/05/10 05:21:16;;;;;;;57.67;4.93;;;5.70;99.90;;;;;;5057063;28;20397;-84
2022/05/10 05:23:45;;;;;;;400.00;52.72;;;5.80;99.90;;;;;;5075219;28;20386;-84
2022/05/10 05:26:12;;;;;;;117.72;14.10;;;5.90;99.90;;;;;;5078947;28;20394;-83
2022/05/10 05:28:40;;;;;;;270.37;30.33;;;6.00;99.90;;;;;;5075174;28;20960;-85
2022/05/10 05:31:09;;;;;;;242.50;26.88;;;5.90;99.90;;;;;;5075204;28;20941;-83
2022/05/10 05:33:38;;;;;;;274.85;15.55;;;6.10;99.90;;;;;;5075036;28;20768;-83
2022/05/10 05:36:06;;;;;;;217.10;25.10;;;6.10;99.90;;;;;;5074951;28;20410;-84
2022/05/10 05:38:35;;;;;;;159.18;11.02;;;6.30;99.90;;;;;;5074947;28;20911;-84
2022/05/10 05:41:03;;;;;;;69.05;5.93;;;6.30;99.90;;;;;;5075056;28;20466;-83
2022/05/10 05:43:31;;;;;;;770.72;42.92;;;6.20;99.90;;;;;;5057125;28;20418;-84
2022/05/10 05:45:59;;;;;;;101.47;8.52;;;6.30;99.90;;;;;;5073822;28;20378;-84
2022/05/10 05:48:26;;;;;;;221.68;23.33;;;6.30;99.90;;;;;;5057280;28;20405;-84
2022/05/10 05:50:54;;;;;;;465.17;32.83;;;6.40;99.90;;;;;;5069653;28;20403;-83
2022/05/10 05:53:22;;;;;;;210.70;16.48;;;6.70;99.90;;;;;;5070220;28;20411;-84
2022/05/10 05:55:49;;;;;;;47.10;3.10;;;6.60;99.90;;;;;;5054806;28;20418;-83
2022/05/10 05:58:17;;;;;;;70.97;14.30;;;6.60;99.90;;;;;;5070034;28;20384;-84
2022/05/10 06:00:45;;;;;;;44.85;4.20;;;6.60;99.90;;;;;;5073946;28;20477;-84
2022/05/10 06:03:13;;;;;;;31.58;3.63;;;6.70;99.90;;;;;;5074245;28;20394;-84
2022/05/10 06:05:40;;;;;;;679.90;45.70;;;6.70;99.90;;;;;;5074558;28;20954;-83
2022/05/10 06:08:09;;;;;;;212.93;19.50;;;6.90;99.90;;;;;;5074144;28;20481;-82
2022/05/10 06:10:38;;;;;;;1087.90;79.78;;;6.90;99.90;;;;;;5072771;28;20393;-84
2022/05/10 06:13:06;;;;;;;376.00;26.02;;;7.00;99.90;;;;;;5089833;28;20965;-84
2022/05/10 06:15:33;;;;;;;978.88;63.17;;;7.10;99.90;;;;;;5073874;28;20405;-83
2022/05/10 06:18:04;;;;;;;71.03;6.10;;;7.30;99.90;;;;;;5074057;28;20798;-84
2022/05/10 06:20:32;;;;;;;2.80;0.80;;;7.40;99.90;;;;;;5073030;28;20385;-84
2022/05/10 06:23:01;;;;;;;526.95;41.10;;;7.20;99.90;;;;;;5068834;28;20380;-85
2022/05/10 06:25:28;;;;;;;397.15;21.27;;;7.40;99.90;;;;;;5054361;28;20924;-85
2022/05/10 06:27:56;;;;;;;312.15;30.60;;;7.40;99.90;;;;;;5052923;28;20446;-85
2022/05/10 06:30:24;;;;;;;186.48;14.10;;;7.40;99.90;;;;;;5053985;28;20452;-85
2022/05/10 06:32:58;;;;;;;173.02;22.92;;;7.40;99.90;;;;;;5054363;28;20387;-85
2022/05/10 06:35:27;;;;;;;236.32;20.10;;;7.50;99.90;;;;;;5053907;28;20408;-85
2022/05/10 06:40:41;;;;;;;417.88;29.50;;;7.60;99.90;;;;;;5053813;28;20392;-85
2022/05/10 06:43:09;;;;;;;16.10;1.60;;;7.90;99.90;;;;;;5053826;28;20975;-86
2022/05/10 06:45:39;;;;;;;85.05;7.10;;;7.90;99.90;;;;;;5053703;28;20480;-84
2022/05/10 06:48:08;;;;;;;607.42;36.22;;;7.70;99.90;;;;;;5053795;28;20396;-85
2022/05/10 06:50:37;;;;;;;125.53;13.10;;;8.00;99.90;;;;;;5055799;28;20426;-85
2022/05/10 06:53:05;;;;;;;223.07;18.10;;;8.00;99.90;;;;;;5073777;28;20432;-84
2022/05/10 06:55:35;;;;;;;5.82;1.45;;;7.90;99.90;;;;;;5073488;28;20876;-84
2022/05/10 06:58:03;;;;;;;76.90;5.33;;;8.00;99.90;;;;;;5055658;28;20401;-84
2022/05/10 07:00:37;;;;;;;336.23;29.90;;;8.00;99.90;;;;;;5073454;28;20418;-85
2022/05/10 07:03:07;;;;;;;116.80;10.88;;;8.20;99.90;;;;;;5073486;28;20378;-86
2022/05/10 07:05:35;;;;;;;116.97;8.00;;;8.10;99.90;;;;;;5073533;28;20382;-85
2022/05/10 07:08:03;;;;;;;225.43;14.90;;;8.10;99.90;;;;;;5073701;28;20386;-85
2022/05/10 07:10:31;;;;;;;3.45;0.90;;;8.20;99.90;;;;;;5073315;28;20828;-86
2022/05/10 07:12:59;;;;;;;42.90;5.20;;;8.30;99.90;;;;;;5072156;28;20445;-84
2022/05/10 07:15:27;;;;;;;53.38;4.55;;;8.40;99.90;;;;;;5073087;28;20430;-85
2022/05/10 07:17:54;;;;;;;380.77;32.08;;;8.50;99.90;;;;;;5072089;28;20741;-86
2022/05/10 07:20:22;;;;;;;5.18;1.20;;;8.50;99.90;;;;;;5073156;28;20382;-86
2022/05/10 07:22:50;;;;;;;80.97;5.47;;;8.70;99.90;;;;;;5073037;28;20394;-85
2022/05/10 07:25:23;;;;;;;725.58;35.13;;;8.60;99.90;;;;;;5071785;28;20441;-85
2022/05/10 07:27:51;;;;;;;72.65;11.77;;;8.80;99.90;;;;;;5072998;28;20439;-85
2022/05/10 07:30:20;;;;;;;210.75;19.30;;;8.90;99.70;;;;;;5073039;28;20477;-86
2022/05/10 07:32:48;;;;;;;66.20;6.68;;;8.80;99.60;;;;;;5072886;28;20386;-85
2022/05/10 07:35:17;;;;;;;267.95;24.63;;;8.80;99.40;;;;;;5072627;28;20450;-84
2022/05/10 07:37:45;;;;;;;457.02;21.38;;;8.70;99.60;;;;;;5072733;28;20390;-86
2022/05/10 07:40:12;;;;;;;253.27;20.63;;;8.80;99.40;;;;;;5072618;28;20410;-85
2022/05/10 07:42:40;;;;;;;571.78;37.22;;;9.00;98.70;;;;;;5072138;28;20990;-85
2022/05/10 07:45:10;;;;;;;33.22;3.22;;;9.10;99.90;;;;;;5072664;28;20393;-86
2022/05/10 07:47:43;;;;;;;3.20;0.95;;;9.10;99.90;;;;;;5072907;28;20521;-85
2022/05/10 07:50:17;;;;;;;3.33;0.90;;;9.10;99.90;;;;;;5072606;28;20390;-86
2022/05/10 07:52:44;;;;;;;710.47;42.92;;;9.20;99.90;;;;;;5072332;28;20748;-86
2022/05/10 07:55:13;;;;;;;310.95;29.75;;;9.40;99.90;;;;;;5072349;28;20401;-86
2022/05/10 07:57:43;;;;;;;3.35;0.90;;;9.50;99.90;;;;;;5072384;28;20417;-85
2022/05/10 08:00:14;;;;;;;360.27;20.38;;;9.50;99.90;;;;;;5075032;28;20402;-86
2022/05/10 08:02:44;;;;;;;238.63;17.25;;;9.40;99.90;;;;;;5089240;28;20382;-86
2022/05/10 08:05:19;;;;;;;3.63;1.02;;;9.60;99.90;;;;;;5072355;28;20398;-85
2022/05/10 08:08:04;;;;;;;300.98;22.80;;;9.60;99.90;;;;;;5072186;28;20467;-85
2022/05/10 08:10:32;;;;;;;5.80;1.05;;;9.70;99.90;;;;;;5054113;28;20443;-84
2022/05/10 08:13:01;;;;;;;4.63;1.15;;;9.50;99.90;;;;;;5072272;28;20390;-86
2022/05/10 08:15:28;;;;;;;253.70;22.57;;;9.40;99.10;;;;;;5072034;28;20394;-86
2022/05/10 08:17:56;;;;;;;177.73;24.05;;;9.60;99.30;;;;;;5072235;28;20434;-85
2022/05/10 08:20:23;;;;;;;19.50;2.35;;;9.80;99.30;;;;;;5072135;28;20468;-85
2022/05/10 08:22:52;;;;;;;473.10;34.65;;;10.10;99.90;;;;;;5054145;28;20469;-84
2022/05/10 08:25:19;;;;;;;163.20;10.75;;;10.00;99.00;;;;;;5053879;28;20402;-86
2022/05/10 08:27:47;;;;;;;103.07;12.15;;;10.20;99.90;;;;;;5070787;28;20426;-84
2022/05/10 08:30:15;;;;;;;46.88;4.70;;;10.50;99.90;;;;;;5070859;28;20382;-84
2022/05/10 08:32:43;;;;;;;76.13;9.10;;;10.40;99.90;;;;;;5071993;28;20823;-84
2022/05/10 08:35:31;;;;;;;13.70;1.23;;;10.30;99.90;;;;;;5046582;28;20408;-86
2022/05/10 08:37:59;;;;;;;12.68;1.80;;;10.40;99.90;;;;;;5070900;28;20822;-86
2022/05/10 08:40:34;;;;;;;233.27;23.23;;;10.50;99.60;;;;;;5071681;28;20478;-86
2022/05/10 08:43:08;;;;;;;4.82;1.30;;;10.60;99.90;;;;;;5077382;28;20391;-86
2022/05/10 08:45:40;;;;;;;209.85;19.45;;;10.70;98.70;;;;;;5091730;28;20388;-86
2022/05/10 08:48:08;;;;;;;230.02;24.90;;;10.60;98.20;;;;;;5091698;28;20917;-86
2022/05/10 08:50:37;;;;;;;17.10;2.13;;;10.60;98.70;;;;;;5073332;28;20392;-85
2022/05/10 08:53:08;;;;;;;4.85;1.10;;;10.60;97.00;;;;;;5090574;28;20391;-86
2022/05/10 08:55:43;;;;;;;53.70;5.88;;;10.60;98.00;;;;;;5060538;28;20404;-86
2022/05/10 08:58:44;;;;;;;271.33;21.07;;;10.60;98.30;;;;;;5094852;28;20434;-86
2022/05/10 09:01:35;;;;;;;86.07;8.33;;;10.60;97.60;;;;;;5053052;28;20389;-86
2022/05/10 09:04:33;;;;;;;9.27;1.40;;;10.80;96.90;;;;;;5058598;28;20417;-87
2022/05/10 09:07:28;;;;;;;230.27;17.13;;;10.80;96.70;;;;;;5058092;28;20448;-86
2022/05/10 09:10:18;;;;;;;5.90;1.10;;;11.00;96.40;;;;;;5075765;28;20389;-86
2022/05/10 09:12:58;;;;;;;393.40;29.55;;;11.10;98.80;;;;;;5064070;28;20426;-88
2022/05/10 09:15:29;;;;;;;612.33;33.92;;;11.40;96.90;;;;;;5068289;28;20497;-84
2022/05/10 09:18:05;;;;;;;486.70;26.98;;;11.50;94.60;;;;;;5061886;28;20773;-88
2022/05/10 09:20:38;;;;;;;217.00;10.98;;;11.50;92.20;;;;;;5054233;28;20394;-86
2022/05/10 09:23:35;;;;;;;260.73;16.92;;;11.50;95.50;;;;;;5066244;28;20467;-86
2022/05/10 09:26:03;;;;;;;18.35;1.60;;;11.40;92.50;;;;;;5026671;28;20497;-85
2022/05/10 09:28:40;;;;;;;63.08;4.30;;;11.30;94.80;;;;;;5063499;28;20453;-86
2022/05/10 09:34:53;;;;;;;347.25;24.15;;;11.60;95.20;;;;;;5091597;28;20781;-88
2022/05/10 09:37:32;;;;;;;330.10;31.00;;;11.70;96.30;;;;;;5077086;28;20384;-88
2022/05/10 09:40:05;;;;;;;226.18;15.50;;;11.90;94.00;;;;;;5088565;28;20467;-86
2022/05/10 09:42:40;;;;;;;311.20;25.67;;;11.90;92.40;;;;;;5054290;28;20922;-87
2022/05/10 09:45:21;;;;;;;48.88;3.53;;;12.00;92.50;;;;;;5095360;28;20415;-87
2022/05/10 09:47:56;;;;;;;174.48;18.77;;;12.00;93.80;;;;;;5094787;28;20384;-87
2022/05/10 09:50:49;;;;;;;475.43;27.60;;;11.90;91.20;;;;;;5094508;28;20415;-87
2022/05/10 09:53:44;;;;;;;348.35;30.63;;;12.00;92.50;;;;;;5095487;28;20385;-88
2022/05/10 09:56:23;;;;;;;135.35;11.45;;;12.20;93.60;;;;;;5093427;28;20404;-87
2022/05/10 09:58:56;;;;;;;739.00;34.95;;;12.30;93.00;;;;;;5094588;28;20464;-87
2022/05/10 10:01:41;;;;;;;47.90;4.22;;;12.40;92.40;;;;;;5085368;28;20749;-84
2022/05/10 10:04:13;;;;;;;833.95;43.97;;;12.40;90.80;;;;;;5070074;28;20409;-84
2022/05/10 10:06:43;;;;;;;595.38;45.38;;;12.50;90.80;;;;;;5074207;28;20388;-85
2022/05/10 10:09:19;;;;;;;452.58;32.60;;;12.40;91.50;;;;;;5057297;28;20390;-84
2022/05/10 10:11:46;;;;;;;202.30;11.95;;;12.60;91.30;;;;;;5074710;28;20390;-88
2022/05/10 10:14:32;;;;;;;1049.85;64.38;;;12.60;92.20;;;;;;5039963;28;20390;-86
2022/05/10 10:17:02;;;;;;;3.78;0.98;;;12.60;90.50;;;;;;5056317;28;20421;-86
2022/05/10 10:19:45;;;;;;;200.68;20.15;;;12.60;89.80;;;;;;5074180;28;20386;-87
2022/05/10 10:22:30;;;;;;;2.70;0.90;;;12.70;88.50;;;;;;5073011;28;20386;-87
2022/05/10 10:25:20;;;;;;;270.38;18.40;;;12.60;90.00;;;;;;5036775;28;20475;-84
2022/05/10 10:28:13;;;;;;;420.85;22.92;;;12.80;91.00;;;;;;5045436;28;20523;-87
2022/05/10 10:30:55;;;;;;;168.10;12.50;;;12.90;92.20;;;;;;5093036;28;20380;-86
2022/05/10 10:33:57;;;;;;;611.97;49.25;;;12.90;89.30;;;;;;5092759;28;20384;-85
2022/05/10 10:36:29;;;;;;;768.70;41.20;;;12.90;86.40;;;;;;5093637;28;20400;-86
2022/05/10 10:39:01;;;;;;;208.45;13.75;;;13.00;88.30;;;;;;5093877;28;20419;-86
2022/05/10 10:41:35;;;;;;;166.45;12.68;;;13.10;90.50;;;;;;5083549;28;20386;-86
2022/05/10 10:44:28;;;;;;;5.22;1.00;;;13.20;87.50;;;;;;5073996;28;20473;-88
2022/05/10 10:47:27;;;;;;;829.58;38.97;;;13.30;90.60;;;;;;5055573;28;20422;-86
2022/05/10 10:50:25;;;;;;;3.85;1.10;;;13.50;87.20;;;;;;5074027;28;20464;-87
2022/05/10 10:52:55;;;;;;;66.47;3.10;;;13.50;91.40;;;;;;5055835;28;20382;-86
2022/05/10 10:55:50;;;;;;;235.17;26.77;;;13.70;89.20;;;;;;5073665;28;20452;-86
2022/05/10 10:58:24;;;;;;;547.92;35.05;;;13.80;87.20;;;;;;5046345;28;20390;-86
2022/05/10 11:01:13;;;;;;;68.90;3.80;;;13.90;85.60;;;;;;5072280;28;20386;-87
2022/05/10 11:03:53;;;;;;;65.55;8.93;;;13.80;82.80;;;;;;5073732;28;20876;-86
2022/05/10 11:06:23;;;;;;;169.05;9.35;;;13.70;86.80;;;;;;5073349;28;21083;-86
2022/05/10 11:09:00;;;;;;;280.48;25.13;;;14.00;83.30;;;;;;5074688;28;20444;-87
2022/05/10 11:12:08;;;;;;;56.20;4.97;;;14.10;86.40;;;;;;5083094;28;20877;-87
2022/05/10 11:15:18;;;;;;;64.85;6.55;;;14.20;82.20;;;;;;5043760;28;20405;-85
2022/05/10 11:18:06;;;;;;;198.43;9.90;;;14.10;81.40;;;;;;5034572;28;20396;-88
2022/05/10 11:21:09;;;;;;;300.15;24.10;;;14.10;82.40;;;;;;5071641;28;20405;-89
2022/05/10 11:24:05;;;;;;;4.30;1.13;;;14.10;78.20;;;;;;5067171;28;20402;-86
2022/05/10 11:27:03;;;;;;;76.45;8.10;;;14.20;82.80;;;;;;5071814;28;20523;-88
2022/05/10 11:29:55;;;;;;;265.35;26.80;;;14.40;84.10;;;;;;5058178;28;20396;-87
2022/05/10 11:33:05;;;;;;;180.35;19.08;;;14.40;80.70;;;;;;5071453;28;20852;-88
2022/05/10 11:35:55;;;;;;;85.40;8.70;;;14.40;77.90;;;;;;5054907;28;20406;-87
2022/05/10 11:38:51;;;;;;;117.20;7.60;;;14.40;77.80;;;;;;5072928;28;20379;-88
2022/05/10 11:41:36;;;;;;;202.52;13.95;;;14.50;79.00;;;;;;5073005;28;20946;-85
2022/05/10 11:44:32;;;;;;;420.83;25.23;;;14.70;85.10;;;;;;5072782;28;20387;-87
2022/05/10 11:47:30;;;;;;;786.80;31.90;;;14.80;80.20;;;;;;5049724;28;20424;-86
2022/05/10 11:50:16;;;;;;;41.33;3.58;;;14.90;81.80;;;;;;5066252;28;20795;-86
2022/05/10 11:52:56;;;;;;;142.93;10.90;;;14.90;78.60;;;;;;5072481;28;20944;-87
2022/05/10 11:55:36;;;;;;;3.63;1.00;;;14.80;77.00;;;;;;5071829;28;20427;-86
2022/05/10 11:58:08;;;;;;;635.38;29.02;;;15.10;77.50;;;;;;5072368;28;20386;-86
2022/05/10 12:00:40;;;;;;;34.17;3.30;;;15.30;73.20;;;;;;5072689;28;20453;-86
2022/05/10 12:03:33;;;;;;;708.25;32.63;;;15.10;76.40;;;;;;5072952;28;20436;-86
2022/05/10 12:06:22;;;;;;;424.05;31.73;;;15.10;74.30;;;;;;5082479;28;20391;-86
2022/05/10 12:08:55;;;;;;;120.88;11.50;;;15.20;73.60;;;;;;5090667;28;20791;-86
2022/05/10 12:11:30;;;;;;;314.17;27.80;;;15.20;75.80;;;;;;5088243;28;20381;-87
2022/05/10 12:22:45;;;;;;;121.82;10.20;;;15.60;80.10;;;;;;5054524;28;20422;-87
2022/05/10 12:25:51;;;;;;;358.40;22.60;;;15.70;75.00;;;;;;5052066;28;20714;-87
2022/05/10 12:28:48;;;;;;;46.65;3.85;;;15.90;73.10;;;;;;5072426;28;20384;-87
2022/05/10 12:31:34;;;;;;;132.63;9.40;;;16.00;71.20;;;;;;5073926;28;20394;-87
2022/05/10 12:34:12;;;;;;;41.28;4.25;;;16.00;77.90;;;;;;5090776;28;20566;-88
2022/05/10 12:36:42;;;;;;;5.28;1.23;;;16.00;74.10;;;;;;5090528;28;20770;-88
2022/05/10 12:39:30;;;;;;;115.00;8.88;;;16.00;75.70;;;;;;5073832;28;20447;-88
2022/05/10 12:42:39;;;;;;;699.13;34.97;;;16.00;77.10;;;;;;5074086;28;20388;-87
2022/05/10 12:45:24;;;;;;;54.92;5.53;;;16.10;71.70;;;;;;5091688;28;20438;-87
2022/05/10 12:47:59;;;;;;;36.03;2.58;;;16.10;74.10;;;;;;5074153;28;20376;-88
2022/05/10 12:50:42;;;;;;;29.70;2.10;;;16.20;76.10;;;;;;5091298;28;20384;-87
2022/05/10 12:53:23;;;;;;;3.35;1.10;;;16.20;75.70;;;;;;5091757;28;20383;-86
2022/05/10 12:55:57;;;;;;;36.20;4.00;;;16.50;78.40;;;;;;5073724;28;20874;-88
2022/05/10 12:58:30;;;;;;;346.50;17.45;;;16.60;76.40;;;;;;5090285;28;20388;-88
2022/05/10 13:01:01;;;;;;;3.50;1.20;;;16.70;74.30;;;;;;5090616;28;20399;-87
2022/05/10 13:03:35;;;;;;;42.13;3.97;;;16.40;73.10;;;;;;5074075;28;20480;-87
2022/05/10 13:06:40;;;;;;;412.40;41.67;;;16.60;72.80;;;;;;5073996;28;20750;-87
2022/05/10 13:09:33;;;;;;;29.38;4.30;;;16.50;72.50;;;;;;5074039;28;20389;-86
2022/05/10 13:15:47;;;;;;;147.75;16.70;;;16.30;78.20;;;;;;5079969;28;20919;-87
2022/05/10 13:18:20;;;;;;;10.15;1.35;;;16.10;75.40;;;;;;5090454;28;20410;-86
2022/05/10 13:20:54;;;;;;;183.57;11.27;;;16.20;76.40;;;;;;5073359;28;20437;-88
2022/05/10 13:23:30;;;;;;;148.82;9.40;;;16.30;75.30;;;;;;5074970;28;20394;-88
2022/05/10 13:26:10;;;;;;;46.47;8.05;;;16.30;74.80;;;;;;5070632;28;20393;-88
2022/05/10 13:29:01;;;;;;;3.40;1.20;;;16.20;75.60;;;;;;5070242;28;20390;-88
2022/05/10 13:31:35;;;;;;;9.30;1.90;;;16.50;73.70;;;;;;5037105;28;20394;-88
2022/05/10 13:34:20;;;;;;;93.93;6.13;;;16.60;75.80;;;;;;5071776;28;20390;-86
2022/05/10 13:36:50;;;;;;;276.63;17.45;;;16.70;72.60;;;;;;5071645;28;20430;-89
2022/05/10 13:39:26;;;;;;;13.48;1.48;;;16.70;73.00;;;;;;5071341;28;20436;-88